Time;durP1;ratioP1;P1;durP2;ratioP2;P2;SDS_P1;SDS_P2;PMS_P1;PMS_P2;Temp;Humidity;BMP_temperature;BMP_pressure;BME280_temperature;BME280_humidity;BME280_pressure;Samples;Min_cycle;Max_cycle;Signal;HPM_P1;HPM_P2
2022/10/07 00:02:10;;;;;;;3.28;1.35;;;6.00;99.90;;;;;;4995502;28;20046;-73
2022/10/07 00:04:37;;;;;;;5.72;1.67;;;6.00;99.90;;;;;;4992313;28;20073;-73
2022/10/07 00:07:03;;;;;;;3.60;1.58;;;6.10;99.90;;;;;;4993785;28;20038;-73
2022/10/07 00:09:29;;;;;;;5.20;1.45;;;6.10;99.90;;;;;;4994479;28;20034;-72
2022/10/07 00:11:55;;;;;;;3.47;2.00;;;6.00;99.90;;;;;;4961223;28;20053;-73
2022/10/07 00:14:21;;;;;;;5.63;2.05;;;6.00;99.90;;;;;;4992923;28;20026;-73
2022/10/07 00:16:48;;;;;;;5.88;1.85;;;6.10;99.90;;;;;;4994614;28;20030;-73
2022/10/07 00:19:14;;;;;;;4.07;1.70;;;6.10;99.90;;;;;;4993936;28;20099;-72
2022/10/07 00:21:40;;;;;;;6.30;1.45;;;6.10;99.90;;;;;;4994225;28;20038;-72
2022/10/07 00:24:07;;;;;;;3.83;1.67;;;6.20;99.90;;;;;;4994767;28;20030;-72
2022/10/07 00:26:35;;;;;;;7.95;1.90;;;6.30;99.90;;;;;;4993023;28;20038;-73
2022/10/07 00:29:03;;;;;;;7.10;2.00;;;6.20;99.90;;;;;;4994185;28;20380;-74
2022/10/07 00:31:32;;;;;;;5.20;2.28;;;6.10;99.90;;;;;;4992559;28;20053;-73
2022/10/07 00:33:59;;;;;;;4.30;1.50;;;6.10;99.90;;;;;;4994651;28;20034;-72
2022/10/07 00:36:28;;;;;;;7.65;1.90;;;6.10;99.90;;;;;;4992841;28;20038;-73
2022/10/07 00:38:59;;;;;;;5.38;1.80;;;6.10;99.90;;;;;;4994226;28;20475;-73
2022/10/07 00:41:31;;;;;;;;;;;5.90;99.90;;;;;;4994042;28;20498;-73
2022/10/07 00:43:58;;;;;;;3.53;1.23;;;5.80;99.90;;;;;;4992946;28;19916;-73
2022/10/07 00:46:36;;;;;;;9.38;2.10;;;5.80;99.90;;;;;;4992885;28;20038;-74
2022/10/07 00:49:11;;;;;;;4.20;1.77;;;5.80;99.90;;;;;;4992781;28;20042;-72
2022/10/07 00:51:39;;;;;;;5.57;2.85;;;5.80;99.90;;;;;;4988488;28;20378;-73
2022/10/07 00:54:13;;;;;;;5.80;1.98;;;5.70;99.90;;;;;;4994506;28;20049;-73
2022/10/07 00:56:41;;;;;;;5.90;1.98;;;5.80;99.90;;;;;;4993808;28;20034;-72
2022/10/07 00:59:08;;;;;;;6.18;2.05;;;5.80;99.90;;;;;;4993569;28;20026;-73
2022/10/07 01:01:34;;;;;;;10.18;2.45;;;5.70;99.90;;;;;;4992967;28;20046;-74
2022/10/07 01:04:02;;;;;;;4.82;2.47;;;5.70;99.90;;;;;;4993537;28;20038;-73
2022/10/07 01:06:29;;;;;;;4.60;2.38;;;5.70;99.90;;;;;;4992296;28;20468;-73
2022/10/07 01:08:56;;;;;;;4.38;2.65;;;5.70;99.90;;;;;;5014397;28;20054;-74
2022/10/07 01:11:26;;;;;;;5.50;2.42;;;5.70;99.90;;;;;;5025088;28;20046;-74
2022/10/07 01:14:06;;;;;;;5.75;2.40;;;5.70;99.90;;;;;;5000243;28;20387;-73
2022/10/07 01:16:45;;;;;;;3.85;2.00;;;5.60;99.90;;;;;;4993097;28;20030;-73
2022/10/07 01:19:26;;;;;;;4.80;1.95;;;5.50;99.90;;;;;;4993717;28;20045;-72
2022/10/07 01:22:21;;;;;;;5.80;2.47;;;5.50;99.90;;;;;;4993706;28;20049;-72
2022/10/07 01:25:12;;;;;;;5.00;2.42;;;5.50;99.90;;;;;;4993635;28;20030;-73
2022/10/07 01:28:03;;;;;;;6.18;3.05;;;5.50;99.90;;;;;;4991563;28;20046;-74
2022/10/07 01:30:31;;;;;;;;;;;5.60;99.90;;;;;;4992106;28;20495;-73
2022/10/07 01:33:02;;;;;;;8.70;3.00;;;5.60;99.90;;;;;;4992444;28;19921;-73
2022/10/07 01:35:34;;;;;;;9.40;5.22;;;5.60;99.90;;;;;;4991944;28;20030;-74
2022/10/07 01:38:05;;;;;;;8.73;4.35;;;5.60;99.90;;;;;;4993418;28;20100;-74
2022/10/07 01:40:43;;;;;;;;;;;5.60;99.90;;;;;;4991926;28;20046;-72
2022/10/07 01:43:14;;;;;;;7.05;4.00;;;5.50;99.90;;;;;;4991814;28;19924;-73
2022/10/07 01:45:40;;;;;;;7.88;2.90;;;5.40;99.90;;;;;;4991721;28;20040;-74
2022/10/07 01:48:07;;;;;;;4.57;2.50;;;5.50;99.90;;;;;;4992874;28;20037;-73
2022/10/07 01:50:35;;;;;;;6.07;2.70;;;5.50;99.90;;;;;;4991516;28;20468;-73
2022/10/07 01:53:33;;;;;;;4.93;2.30;;;5.50;99.90;;;;;;4993207;28;20487;-73
2022/10/07 01:56:20;;;;;;;4.45;2.47;;;5.40;99.90;;;;;;4950943;28;20392;-72
2022/10/07 01:58:56;;;;;;;4.03;2.05;;;5.40;99.90;;;;;;4992426;28;20380;-73
2022/10/07 02:01:39;;;;;;;6.85;2.13;;;5.40;99.90;;;;;;4975420;28;20053;-73
2022/10/07 02:04:14;;;;;;;6.13;2.58;;;5.30;99.90;;;;;;4989998;28;20057;-74
2022/10/07 02:07:00;;;;;;;9.80;2.17;;;5.20;99.90;;;;;;4990816;28;20043;-73
2022/10/07 02:09:36;;;;;;;4.07;1.80;;;5.00;99.90;;;;;;4974501;28;20038;-73
2022/10/07 02:12:33;;;;;;;4.03;1.95;;;5.10;99.90;;;;;;4991054;28;20053;-73
2022/10/07 02:15:18;;;;;;;6.07;2.17;;;5.10;99.90;;;;;;4986522;28;20046;-73
2022/10/07 02:17:51;;;;;;;4.03;2.38;;;5.00;99.90;;;;;;5006349;28;20054;-72
2022/10/07 02:20:20;;;;;;;4.75;2.03;;;5.00;99.90;;;;;;4992834;28;20037;-73
2022/10/07 02:22:47;;;;;;;7.22;2.00;;;5.00;99.90;;;;;;4992198;28;20392;-73
2022/10/07 02:25:16;;;;;;;8.68;2.28;;;5.00;99.90;;;;;;4999512;28;20057;-73
2022/10/07 02:27:45;;;;;;;7.47;3.85;;;5.00;99.90;;;;;;4990407;28;20050;-73
2022/10/07 02:30:15;;;;;;;9.45;2.97;;;5.00;99.90;;;;;;4990984;28;20053;-73
2022/10/07 02:32:52;;;;;;;5.25;2.70;;;5.00;99.90;;;;;;4990553;28;20050;-74
2022/10/07 02:35:31;;;;;;;8.23;2.67;;;5.00;99.90;;;;;;4990302;28;20042;-72
2022/10/07 02:38:02;;;;;;;6.07;2.20;;;5.00;99.90;;;;;;4990930;28;20042;-72
2022/10/07 02:40:40;;;;;;;6.75;2.33;;;4.90;99.90;;;;;;4992201;28;20046;-74
2022/10/07 02:43:29;;;;;;;6.10;2.13;;;4.90;99.90;;;;;;4991126;28;20050;-73
2022/10/07 02:46:06;;;;;;;7.47;2.10;;;4.80;99.90;;;;;;4992009;28;20506;-72
2022/10/07 02:48:42;;;;;;;8.27;4.65;;;4.70;99.90;;;;;;4991708;28;20042;-72
2022/10/07 02:51:17;;;;;;;12.40;4.35;;;4.80;99.90;;;;;;4992581;28;20049;-72
2022/10/07 02:53:48;;;;;;;7.30;3.25;;;4.80;99.90;;;;;;4985964;28;20315;-74
2022/10/07 02:56:17;;;;;;;5.90;3.10;;;4.80;99.90;;;;;;4985917;28;20026;-73
2022/10/07 02:58:45;;;;;;;7.07;2.88;;;4.90;99.90;;;;;;4990205;28;20034;-73
2022/10/07 03:01:27;;;;;;;5.32;2.55;;;4.90;99.90;;;;;;4977535;28;20050;-72
2022/10/07 03:03:56;;;;;;;7.35;2.67;;;4.80;99.90;;;;;;4991124;28;20053;-73
2022/10/07 03:06:24;;;;;;;8.63;2.85;;;4.70;99.90;;;;;;4991013;28;20038;-74
2022/10/07 03:08:52;;;;;;;5.35;2.13;;;4.70;99.90;;;;;;5005666;28;20050;-73
2022/10/07 03:11:18;;;;;;;8.55;2.40;;;4.70;99.90;;;;;;4991189;28;20065;-74
2022/10/07 03:13:46;;;;;;;5.38;2.45;;;4.70;99.90;;;;;;4990391;28;20050;-72
2022/10/07 03:16:12;;;;;;;14.43;4.10;;;4.80;99.90;;;;;;4989845;28;20034;-73
2022/10/07 03:18:39;;;;;;;8.15;2.80;;;4.80;99.90;;;;;;4989966;28;20043;-74
2022/10/07 03:21:32;;;;;;;6.72;3.40;;;4.90;99.90;;;;;;4977340;28;20054;-73
2022/10/07 03:24:03;;;;;;;5.95;2.72;;;4.90;99.90;;;;;;4990838;28;20384;-73
2022/10/07 03:26:32;;;;;;;6.63;3.03;;;4.70;99.90;;;;;;4993522;28;20050;-74
2022/10/07 03:28:59;;;;;;;5.70;2.72;;;4.70;99.90;;;;;;4992147;28;20050;-74
2022/10/07 03:31:27;;;;;;;9.57;3.22;;;4.70;99.90;;;;;;4992812;28;20030;-72
2022/10/07 03:33:57;;;;;;;6.40;2.70;;;4.70;99.90;;;;;;4993655;28;20050;-74
2022/10/07 03:36:24;;;;;;;5.65;2.35;;;4.70;99.90;;;;;;4978275;28;20046;-73
2022/10/07 03:38:50;;;;;;;7.25;2.55;;;4.70;99.90;;;;;;4993029;28;20510;-73
2022/10/07 03:41:18;;;;;;;7.93;2.38;;;4.70;99.90;;;;;;4996314;28;20034;-73
2022/10/07 03:43:45;;;;;;;4.65;2.05;;;4.60;99.90;;;;;;4994551;28;20496;-73
2022/10/07 03:46:16;;;;;;;4.43;2.25;;;4.50;99.90;;;;;;4993195;28;20045;-73
2022/10/07 03:48:43;;;;;;;5.72;2.38;;;4.40;99.90;;;;;;4992547;28;20042;-73
2022/10/07 03:51:09;;;;;;;9.98;2.80;;;4.50;99.90;;;;;;4993683;28;20394;-72
2022/10/07 03:53:38;;;;;;;8.85;2.75;;;4.50;99.90;;;;;;4992717;28;20402;-74
2022/10/07 03:56:05;;;;;;;5.03;2.08;;;4.50;99.90;;;;;;4976477;28;20053;-73
2022/10/07 03:58:32;;;;;;;6.78;2.65;;;4.60;99.90;;;;;;4988116;28;20046;-74
2022/10/07 04:01:09;;;;;;;8.95;2.80;;;4.60;99.90;;;;;;4993312;28;20046;-72
2022/10/07 04:03:37;;;;;;;4.60;2.38;;;4.60;99.90;;;;;;4990897;28;20484;-73
2022/10/07 04:06:04;;;;;;;5.85;2.45;;;4.60;99.90;;;;;;4992226;28;20495;-73
2022/10/07 04:08:33;;;;;;;10.63;3.00;;;4.60;99.90;;;;;;4992596;28;20038;-74
2022/10/07 04:11:02;;;;;;;5.75;2.72;;;4.60;99.90;;;;;;4993400;28;20054;-72
2022/10/07 04:13:32;;;;;;;9.75;4.68;;;4.70;99.90;;;;;;4993106;28;20042;-74
2022/10/07 04:16:05;;;;;;;9.55;3.78;;;4.70;99.90;;;;;;4992476;28;20042;-73
2022/10/07 04:18:31;;;;;;;8.85;3.10;;;4.70;99.90;;;;;;4994395;28;20045;-74
2022/10/07 04:20:59;;;;;;;7.30;3.13;;;4.70;99.90;;;;;;4993451;28;20050;-72
2022/10/07 04:23:25;;;;;;;9.88;4.00;;;4.60;99.90;;;;;;4993093;28;20057;-74
2022/10/07 04:25:52;;;;;;;7.10;2.97;;;4.70;99.90;;;;;;4992910;28;20054;-72
2022/10/07 04:28:23;;;;;;;8.20;3.63;;;4.70;99.90;;;;;;4993382;28;20464;-74
2022/10/07 04:30:54;;;;;;;8.82;2.78;;;4.70;99.90;;;;;;4976933;28;20042;-74
2022/10/07 04:33:26;;;;;;;8.25;2.42;;;4.80;99.90;;;;;;4992990;28;20122;-73
2022/10/07 04:35:55;;;;;;;4.60;2.25;;;4.80;99.90;;;;;;4990941;28;20038;-74
2022/10/07 04:38:21;;;;;;;8.60;2.13;;;4.90;99.90;;;;;;4993244;28;20042;-73
2022/10/07 04:40:49;;;;;;;3.90;2.00;;;4.90;99.90;;;;;;4992089;28;20046;-73
2022/10/07 04:43:22;;;;;;;8.38;2.15;;;4.90;99.90;;;;;;4992287;28;20058;-73
2022/10/07 04:46:00;;;;;;;5.40;2.55;;;4.90;99.90;;;;;;4991493;28;20049;-72
2022/10/07 04:48:27;;;;;;;3.63;1.80;;;4.80;99.90;;;;;;4973457;28;20051;-72
2022/10/07 04:50:53;;;;;;;4.22;1.95;;;4.90;99.90;;;;;;4992098;28;20057;-72
2022/10/07 04:53:21;;;;;;;3.35;1.70;;;4.90;99.90;;;;;;4985883;28;20053;-73
2022/10/07 04:55:50;;;;;;;4.60;1.90;;;4.80;99.90;;;;;;4990960;28;20396;-74
2022/10/07 04:58:18;;;;;;;5.95;2.03;;;4.80;99.90;;;;;;4995308;28;20061;-73
2022/10/07 05:00:47;;;;;;;5.72;2.05;;;4.80;99.90;;;;;;4991975;28;20054;-73
2022/10/07 05:03:16;;;;;;;3.60;2.17;;;4.70;99.90;;;;;;4992483;28;20408;-73
2022/10/07 05:05:44;;;;;;;6.30;2.53;;;4.70;99.90;;;;;;4991993;28;20034;-73
2022/10/07 05:08:13;;;;;;;8.27;2.22;;;4.60;99.90;;;;;;4989169;28;20030;-72
2022/10/07 05:10:40;;;;;;;7.18;2.35;;;4.60;99.90;;;;;;4969414;28;20038;-74
2022/10/07 05:13:11;;;;;;;6.93;2.38;;;4.60;99.90;;;;;;4990848;28;20045;-73
2022/10/07 05:15:47;;;;;;;6.18;2.13;;;4.60;99.90;;;;;;4986558;28;20043;-73
2022/10/07 05:18:14;;;;;;;4.97;1.90;;;4.70;99.90;;;;;;5011540;28;20035;-74
2022/10/07 05:20:42;;;;;;;9.63;3.08;;;4.70;99.90;;;;;;4990947;28;20045;-74
2022/10/07 05:23:09;;;;;;;6.07;2.33;;;4.80;99.90;;;;;;5014828;28;20126;-74
2022/10/07 05:25:35;;;;;;;11.52;3.58;;;4.80;99.90;;;;;;5008987;28;20041;-75
2022/10/07 05:28:01;;;;;;;6.05;3.05;;;4.80;99.90;;;;;;4991272;28;20034;-73
2022/10/07 05:30:28;;;;;;;5.43;2.33;;;4.80;99.90;;;;;;4992009;28;20030;-73
2022/10/07 05:32:56;;;;;;;10.98;2.45;;;4.80;99.90;;;;;;4990076;28;20683;-73
2022/10/07 05:35:23;;;;;;;4.82;2.22;;;4.80;99.90;;;;;;4986480;28;20039;-73
2022/10/07 05:37:52;;;;;;;8.35;2.58;;;4.80;99.90;;;;;;4986064;28;20045;-73
2022/10/07 05:40:20;;;;;;;6.05;2.25;;;4.80;99.90;;;;;;4989713;28;20035;-74
2022/10/07 05:42:46;;;;;;;6.55;2.63;;;4.80;99.90;;;;;;4989205;28;20054;-74
2022/10/07 05:45:12;;;;;;;7.03;3.00;;;4.80;99.90;;;;;;4987368;28;20384;-73
2022/10/07 05:47:39;;;;;;;6.38;2.90;;;4.90;99.90;;;;;;4986487;28;20049;-74
2022/10/07 05:50:06;;;;;;;6.63;2.83;;;5.00;99.90;;;;;;4989990;28;20049;-72
2022/10/07 05:52:34;;;;;;;12.23;3.22;;;5.00;99.90;;;;;;4988614;28;20364;-74
2022/10/07 05:55:04;;;;;;;7.10;3.05;;;5.10;99.90;;;;;;4990219;28;20349;-72
2022/10/07 05:57:31;;;;;;;9.35;2.50;;;5.20;99.90;;;;;;4975333;28;20035;-72
2022/10/07 05:59:57;;;;;;;8.38;2.65;;;5.30;99.90;;;;;;4991034;28;20034;-73
2022/10/07 06:02:24;;;;;;;5.32;2.45;;;5.30;99.90;;;;;;4991171;28;20065;-71
2022/10/07 06:04:51;;;;;;;5.75;2.38;;;5.40;99.90;;;;;;4990070;28;20468;-73
2022/10/07 06:07:17;;;;;;;8.38;3.03;;;5.50;99.90;;;;;;4991264;28;20031;-72
2022/10/07 06:15:14;;;;;;;8.95;3.17;;;5.80;99.90;;;;;;4990762;28;20038;-72
2022/10/07 06:17:44;;;;;;;8.82;3.08;;;5.90;99.90;;;;;;4991125;28;20482;-73
2022/10/07 06:20:13;;;;;;;7.05;2.92;;;5.90;99.90;;;;;;4991427;28;20065;-71
2022/10/07 06:22:39;;;;;;;14.68;4.65;;;5.90;99.90;;;;;;4990068;28;20078;-72
2022/10/07 06:25:06;;;;;;;5.70;2.50;;;6.00;99.90;;;;;;4974117;28;20045;-74
2022/10/07 06:27:33;;;;;;;9.95;2.90;;;6.00;99.90;;;;;;4991211;28;20039;-73
2022/10/07 06:30:00;;;;;;;6.13;3.28;;;6.00;99.90;;;;;;4990715;28;20034;-73
2022/10/07 06:32:29;;;;;;;8.75;3.33;;;6.10;99.90;;;;;;4961867;28;20058;-72
2022/10/07 06:34:55;;;;;;;6.70;3.50;;;6.10;99.90;;;;;;4989534;28;20277;-73
2022/10/07 06:37:22;;;;;;;5.45;3.30;;;6.20;99.90;;;;;;4991150;28;20043;-72
2022/10/07 06:39:48;;;;;;;11.75;3.55;;;6.20;99.90;;;;;;4990301;28;20042;-73
2022/10/07 06:42:14;;;;;;;5.50;2.80;;;6.30;99.90;;;;;;4990787;28;20046;-73
2022/10/07 06:44:55;;;;;;;10.33;3.67;;;6.30;99.90;;;;;;4989770;28;20310;-74
2022/10/07 06:47:23;;;;;;;6.53;3.30;;;6.40;99.90;;;;;;4991112;28;20038;-73
2022/10/07 06:49:49;;;;;;;7.65;3.30;;;6.60;99.90;;;;;;4990579;28;20042;-73
2022/10/07 06:52:16;;;;;;;8.77;3.38;;;6.80;99.90;;;;;;4996949;28;20046;-73
2022/10/07 06:54:42;;;;;;;7.93;3.30;;;6.90;99.90;;;;;;4990897;28;20030;-72
2022/10/07 06:57:10;;;;;;;6.85;2.63;;;6.90;99.90;;;;;;4990785;28;20042;-74
2022/10/07 06:59:36;;;;;;;4.35;2.58;;;7.00;99.90;;;;;;4992004;28;20486;-75
2022/10/07 07:02:10;;;;;;;6.25;3.10;;;7.20;99.90;;;;;;4994175;28;20042;-73
2022/10/07 07:04:37;;;;;;;7.30;2.80;;;7.30;99.90;;;;;;5008699;28;20046;-73
2022/10/07 07:07:04;;;;;;;7.13;3.88;;;7.30;99.90;;;;;;4996282;28;20026;-74
2022/10/07 07:09:31;;;;;;;8.73;4.63;;;7.40;99.90;;;;;;4996210;28;20030;-73
2022/10/07 07:11:57;;;;;;;7.60;4.03;;;7.50;99.90;;;;;;5004391;28;20376;-74
2022/10/07 07:14:33;;;;;;;8.65;3.97;;;7.50;99.90;;;;;;4986479;28;20042;-73
2022/10/07 07:17:03;;;;;;;8.93;3.47;;;7.50;99.90;;;;;;5010302;28;20038;-75
2022/10/07 07:19:30;;;;;;;5.22;2.60;;;7.50;99.90;;;;;;4988401;28;20459;-74
2022/10/07 07:21:56;;;;;;;6.70;2.65;;;7.40;99.90;;;;;;4977713;28;20050;-73
2022/10/07 07:24:25;;;;;;;13.95;3.42;;;7.30;99.90;;;;;;4993671;28;20371;-73
2022/10/07 07:26:51;;;;;;;11.10;3.97;;;7.40;99.90;;;;;;4993580;28;20043;-73
2022/10/07 07:29:19;;;;;;;13.13;4.80;;;7.50;99.90;;;;;;4994045;28;20042;-73
2022/10/07 07:31:53;;;;;;;7.38;3.25;;;7.70;99.90;;;;;;4994007;28;20387;-73
2022/10/07 07:34:22;;;;;;;10.43;4.95;;;8.00;99.90;;;;;;4992797;28;20047;-73
2022/10/07 07:36:50;;;;;;;8.43;4.55;;;8.00;99.90;;;;;;4995215;28;20033;-72
2022/10/07 07:39:18;;;;;;;12.45;5.50;;;8.10;99.90;;;;;;4978104;28;20042;-73
2022/10/07 07:41:51;;;;;;;7.60;3.92;;;8.20;99.90;;;;;;5009163;28;20030;-74
2022/10/07 07:44:22;;;;;;;6.20;3.75;;;8.50;99.90;;;;;;5002199;28;20043;-74
2022/10/07 07:46:50;;;;;;;9.45;3.40;;;8.60;99.90;;;;;;4993564;28;20045;-73
2022/10/07 07:49:18;;;;;;;5.25;2.72;;;8.70;99.90;;;;;;4993809;28;20372;-73
2022/10/07 07:51:46;;;;;;;6.63;3.13;;;8.80;99.90;;;;;;5009068;28;20042;-72
2022/10/07 07:54:18;;;;;;;6.00;2.85;;;8.90;99.90;;;;;;4992238;28;20375;-74
2022/10/07 07:56:47;;;;;;;9.32;3.88;;;9.20;99.90;;;;;;4993002;28;20042;-73
2022/10/07 07:59:13;;;;;;;8.55;3.15;;;9.40;99.90;;;;;;4993535;28;20353;-74
2022/10/07 08:01:42;;;;;;;7.70;2.80;;;9.50;99.90;;;;;;4992899;28;20049;-74
2022/10/07 08:04:09;;;;;;;7.97;3.17;;;9.60;99.90;;;;;;5007909;28;20054;-73
2022/10/07 08:06:36;;;;;;;5.97;3.15;;;9.80;99.90;;;;;;4994040;28;20029;-74
2022/10/07 08:09:04;;;;;;;6.45;3.05;;;9.90;99.90;;;;;;4994768;28;20031;-74
2022/10/07 08:11:33;;;;;;;8.88;3.70;;;9.70;99.90;;;;;;4992435;28;20053;-73
2022/10/07 08:14:02;;;;;;;10.93;3.15;;;9.70;99.90;;;;;;4984605;28;20391;-75
2022/10/07 08:16:30;;;;;;;7.63;3.15;;;9.90;99.90;;;;;;5009051;28;20375;-73
2022/10/07 08:18:58;;;;;;;5.43;2.95;;;10.20;99.90;;;;;;4986488;28;20034;-73
2022/10/07 08:21:27;;;;;;;5.65;2.53;;;10.50;99.90;;;;;;4994852;28;20038;-74
2022/10/07 08:23:57;;;;;;;8.23;3.28;;;10.60;99.90;;;;;;4985220;28;20038;-72
2022/10/07 08:26:30;;;;;;;5.78;3.40;;;10.90;99.90;;;;;;5008798;28;20035;-73
2022/10/07 08:29:00;;;;;;;10.65;2.90;;;11.20;99.90;;;;;;4986469;28;20038;-74
2022/10/07 08:31:28;;;;;;;6.22;2.58;;;11.70;99.90;;;;;;4993074;28;20039;-74
2022/10/07 08:33:56;;;;;;;13.95;3.10;;;11.70;99.90;;;;;;4993065;28;20448;-74
2022/10/07 08:36:25;;;;;;;10.50;3.10;;;11.50;99.90;;;;;;4988645;28;20042;-73
2022/10/07 08:38:51;;;;;;;8.68;3.80;;;11.30;99.90;;;;;;4994127;28;20474;-73
2022/10/07 08:41:38;;;;;;;7.68;3.00;;;11.40;99.90;;;;;;4988071;28;20034;-72
2022/10/07 08:44:16;;;;;;;9.52;3.60;;;11.30;99.90;;;;;;4992808;28;20034;-72
2022/10/07 08:47:00;;;;;;;7.32;2.95;;;11.60;99.90;;;;;;4993850;28;20039;-73
2022/10/07 08:49:48;;;;;;;10.95;3.20;;;11.80;99.90;;;;;;4994465;28;20383;-73
2022/10/07 08:52:24;;;;;;;6.03;2.60;;;11.70;99.90;;;;;;4993176;28;20034;-72
2022/10/07 08:54:50;;;;;;;10.70;2.65;;;11.60;99.90;;;;;;4982703;28;20372;-73
2022/10/07 08:57:31;;;;;;;11.40;4.25;;;11.90;99.90;;;;;;4993780;28;20034;-72
2022/10/07 09:00:00;;;;;;;;;;;12.10;99.90;;;;;;4990028;28;20468;-72
2022/10/07 09:02:58;;;;;;;5.90;2.55;;;12.10;99.90;;;;;;4990583;28;19913;-73
2022/10/07 09:05:35;;;;;;;14.57;5.25;;;12.00;99.90;;;;;;4971184;28;20038;-72
2022/10/07 09:08:26;;;;;;;13.07;3.85;;;12.60;99.90;;;;;;4990005;28;20022;-73
2022/10/07 09:10:55;;;;;;;11.75;5.15;;;12.90;99.90;;;;;;4990533;28;20033;-72
2022/10/07 09:13:34;;;;;;;8.98;3.42;;;13.20;99.90;;;;;;4992850;28;20034;-72
2022/10/07 09:16:10;;;;;;;7.30;2.42;;;13.20;99.90;;;;;;4986945;28;20057;-73
2022/10/07 09:18:41;;;;;;;8.43;3.30;;;13.10;99.90;;;;;;5008143;28;20053;-73
2022/10/07 09:21:15;;;;;;;10.40;2.28;;;13.00;99.90;;;;;;4993376;28;20026;-73
2022/10/07 09:23:44;;;;;;;9.02;2.80;;;13.60;99.90;;;;;;4993675;28;20101;-72
2022/10/07 09:26:12;;;;;;;6.53;2.20;;;13.70;99.90;;;;;;4992383;28;20054;-72
2022/10/07 09:28:39;;;;;;;7.65;2.65;;;13.60;99.90;;;;;;4987449;28;20037;-71
2022/10/07 09:31:06;;;;;;;6.70;2.88;;;13.30;99.90;;;;;;4990045;28;20030;-72
2022/10/07 09:33:40;;;;;;;8.82;2.63;;;13.60;99.90;;;;;;4990968;28;20460;-77
2022/10/07 09:36:09;;;;;;;7.43;2.17;;;13.80;99.90;;;;;;4994628;28;20037;-71
2022/10/07 09:38:41;;;;;;;4.55;2.60;;;13.60;99.90;;;;;;5014172;28;20030;-73
2022/10/07 09:41:18;;;;;;;6.63;2.67;;;13.60;99.90;;;;;;5009240;28;20370;-74
2022/10/07 09:44:03;;;;;;;9.02;4.72;;;13.80;99.90;;;;;;4991814;28;20038;-76
2022/10/07 09:46:41;;;;;;;4.72;2.60;;;13.80;99.90;;;;;;4991477;28;20026;-74
2022/10/07 09:49:25;;;;;;;5.50;2.53;;;13.80;99.90;;;;;;4990059;28;20050;-75
2022/10/07 09:52:16;;;;;;;7.30;2.60;;;13.60;99.90;;;;;;4991032;28;20049;-75
2022/10/07 09:54:48;;;;;;;5.38;1.92;;;13.80;99.90;;;;;;4990953;28;20030;-75
2022/10/07 09:57:40;;;;;;;9.07;2.65;;;13.90;99.90;;;;;;4991483;28;20035;-75
2022/10/07 10:00:14;;;;;;;6.95;2.47;;;13.80;99.90;;;;;;4989272;28;20513;-74
2022/10/07 10:02:46;;;;;;;6.72;2.85;;;14.00;99.90;;;;;;4992831;28;20038;-74
2022/10/07 10:05:25;;;;;;;7.00;2.20;;;14.00;99.90;;;;;;4990249;28;20033;-74
2022/10/07 10:07:55;;;;;;;4.50;2.33;;;14.20;99.90;;;;;;4979695;28;20022;-74
2022/10/07 10:10:32;;;;;;;5.83;2.20;;;14.20;99.90;;;;;;4985937;28;20039;-73
2022/10/07 10:13:00;;;;;;;4.47;2.17;;;14.00;99.90;;;;;;4991623;28;20598;-75
2022/10/07 10:15:41;;;;;;;7.53;1.98;;;14.10;99.90;;;;;;4990758;28;20479;-75
2022/10/07 10:18:38;;;;;;;11.15;2.90;;;14.20;99.90;;;;;;4991987;28;20043;-75
2022/10/07 10:21:20;;;;;;;8.60;2.40;;;14.50;99.90;;;;;;4991275;28;20102;-75
2022/10/07 10:23:51;;;;;;;6.18;1.98;;;14.70;99.90;;;;;;4992614;28;20379;-73
2022/10/07 10:26:32;;;;;;;12.60;2.00;;;14.90;99.90;;;;;;4991561;28;20370;-75
2022/10/07 10:29:15;;;;;;;7.03;1.77;;;15.20;99.90;;;;;;4992390;28;20086;-75
2022/10/07 10:31:59;;;;;;;4.13;1.58;;;15.50;99.90;;;;;;4992819;28;20317;-75
2022/10/07 10:34:49;;;;;;;4.65;1.73;;;15.70;99.90;;;;;;4990614;28;20050;-74
2022/10/07 10:37:26;;;;;;;4.13;1.73;;;15.70;99.90;;;;;;4992838;28;20030;-74
2022/10/07 10:40:01;;;;;;;4.93;2.20;;;15.60;99.40;;;;;;4990799;28;20049;-74
2022/10/07 10:42:36;;;;;;;9.43;2.63;;;15.40;99.20;;;;;;4992818;28;20038;-74
2022/10/07 10:45:20;;;;;;;6.90;2.80;;;15.40;99.90;;;;;;4990337;28;20045;-73
2022/10/07 10:48:18;;;;;;;4.82;1.85;;;15.50;99.60;;;;;;4988482;28;20026;-74
2022/10/07 10:50:54;;;;;;;6.45;2.03;;;15.60;99.90;;;;;;4992570;28;20399;-74
2022/10/07 10:53:33;;;;;;;7.97;2.60;;;15.80;99.90;;;;;;4992345;28;20042;-75
2022/10/07 10:56:11;;;;;;;8.68;2.47;;;16.00;99.90;;;;;;4989187;28;20034;-74
2022/10/07 10:58:53;;;;;;;6.75;2.10;;;15.60;99.90;;;;;;4993142;28;20034;-74
2022/10/07 11:01:35;;;;;;;6.60;2.88;;;15.30;99.90;;;;;;4992798;28;20054;-74
2022/10/07 11:04:16;;;;;;;6.10;1.40;;;15.40;99.90;;;;;;4991574;28;20419;-75
2022/10/07 11:06:59;;;;;;;7.70;2.50;;;15.60;99.90;;;;;;4992068;28;20026;-75
2022/10/07 11:09:32;;;;;;;8.48;2.35;;;16.10;99.90;;;;;;4992548;28;20034;-75
2022/10/07 11:12:03;;;;;;;6.00;1.90;;;16.40;99.90;;;;;;4991734;28;20053;-75
2022/10/07 11:14:31;;;;;;;6.55;1.80;;;16.50;98.50;;;;;;4989612;28;20061;-74
2022/10/07 11:17:03;;;;;;;5.78;2.13;;;16.30;98.30;;;;;;4989950;28;20042;-74
2022/10/07 11:19:45;;;;;;;6.55;2.80;;;16.50;99.10;;;;;;4992148;28;20038;-76
2022/10/07 11:22:20;;;;;;;6.93;2.40;;;16.40;97.10;;;;;;4991432;28;20353;-75
2022/10/07 11:24:55;;;;;;;8.98;2.88;;;16.20;96.60;;;;;;4990067;28;20050;-74
2022/10/07 11:27:28;;;;;;;10.80;2.90;;;16.50;97.50;;;;;;4992068;28;20041;-75
2022/10/07 11:30:06;;;;;;;6.60;2.60;;;16.50;95.40;;;;;;4990989;28;20041;-74
2022/10/07 11:32:42;;;;;;;6.68;2.50;;;16.30;95.50;;;;;;4991616;28;20503;-74
2022/10/07 11:35:31;;;;;;;4.68;2.97;;;16.20;96.20;;;;;;4989801;28;20069;-74
2022/10/07 11:38:12;;;;;;;13.02;3.55;;;16.40;95.20;;;;;;4991403;28;20041;-74
2022/10/07 11:40:44;;;;;;;4.85;2.55;;;16.30;96.00;;;;;;4991867;28;20046;-74
2022/10/07 11:43:29;;;;;;;10.50;3.85;;;16.30;95.40;;;;;;4991010;28;20252;-74
2022/10/07 11:46:07;;;;;;;4.95;2.67;;;16.40;94.60;;;;;;4992644;28;20026;-73
2022/10/07 11:48:40;;;;;;;10.00;3.30;;;16.30;94.50;;;;;;4995673;28;20058;-74
2022/10/07 11:51:14;;;;;;;8.32;4.20;;;16.50;94.30;;;;;;4995008;28;20038;-74
2022/10/07 11:53:40;;;;;;;7.57;3.47;;;16.60;94.20;;;;;;4978240;28;20402;-73
2022/10/07 11:56:19;;;;;;;9.02;2.75;;;16.80;94.20;;;;;;4993092;28;20033;-74
2022/10/07 11:58:54;;;;;;;10.18;2.58;;;17.00;93.50;;;;;;4995220;28;20034;-75
2022/10/07 12:01:29;;;;;;;12.10;4.10;;;17.00;92.60;;;;;;4995488;28;20387;-75
2022/10/07 12:04:20;;;;;;;9.55;3.03;;;16.80;92.30;;;;;;4993221;28;20047;-73
2022/10/07 12:07:25;;;;;;;6.70;2.45;;;16.80;92.80;;;;;;4995347;28;20050;-74
2022/10/07 12:10:16;;;;;;;10.45;3.03;;;16.80;92.80;;;;;;4972665;28;20422;-73
2022/10/07 12:12:43;;;;;;;8.15;3.30;;;17.20;92.50;;;;;;4994978;28;20038;-74
2022/10/07 12:15:28;;;;;;;8.90;2.90;;;17.20;91.50;;;;;;4992636;28;20041;-73
2022/10/07 12:18:01;;;;;;;8.43;3.17;;;17.20;92.30;;;;;;4994080;28;20034;-72
2022/10/07 12:20:43;;;;;;;9.57;2.95;;;17.60;93.40;;;;;;4993602;28;20050;-74
2022/10/07 12:25:58;;;;;;;5.72;3.03;;;18.20;91.00;;;;;;4993498;28;20038;-74
2022/10/07 12:28:44;;;;;;;9.47;4.27;;;18.00;91.10;;;;;;4989894;28;20034;-74
2022/10/07 12:31:14;;;;;;;6.47;2.72;;;17.90;90.80;;;;;;4993971;28;20476;-74
2022/10/07 12:33:43;;;;;;;9.90;3.85;;;18.00;90.80;;;;;;4994585;28;20073;-74
2022/10/07 12:36:21;;;;;;;12.30;3.55;;;18.20;89.90;;;;;;4992528;28;20031;-74
2022/10/07 12:38:59;;;;;;;5.35;2.83;;;18.50;90.60;;;;;;4993413;28;20034;-74
2022/10/07 12:41:34;;;;;;;7.25;3.78;;;18.80;88.60;;;;;;4973792;28;20503;-74
2022/10/07 12:44:07;;;;;;;6.93;3.10;;;18.90;86.80;;;;;;4985386;28;20050;-73
2022/10/07 12:46:52;;;;;;;9.63;3.90;;;19.20;85.80;;;;;;4994341;28;20037;-74
2022/10/07 12:49:33;;;;;;;10.32;3.65;;;19.30;84.30;;;;;;4994088;28;20046;-75
2022/10/07 12:52:10;;;;;;;10.30;3.80;;;19.40;83.40;;;;;;4993707;28;20049;-73
2022/10/07 12:55:09;;;;;;;11.48;4.20;;;19.40;83.40;;;;;;4986701;28;20038;-73
2022/10/07 12:57:41;;;;;;;7.80;4.38;;;19.10;81.50;;;;;;4993600;28;20041;-74
2022/10/07 13:00:18;;;;;;;8.30;3.22;;;18.60;82.70;;;;;;4994137;28;20042;-74
2022/10/07 13:03:09;;;;;;;11.30;4.68;;;18.50;84.40;;;;;;4993852;28;20057;-75
2022/10/07 13:05:57;;;;;;;10.88;4.80;;;18.70;86.40;;;;;;4992684;28;20049;-74
2022/10/07 13:08:45;;;;;;;9.18;3.85;;;18.60;85.20;;;;;;4993749;28;20030;-73
2022/10/07 13:11:48;;;;;;;8.02;3.28;;;18.60;86.60;;;;;;4993136;28;20463;-74
2022/10/07 13:14:44;;;;;;;11.70;4.13;;;18.60;86.80;;;;;;4991620;28;20678;-74
2022/10/07 13:17:45;;;;;;;13.13;5.70;;;18.80;91.30;;;;;;4992948;28;20034;-74
2022/10/07 13:20:16;;;;;;;7.57;3.88;;;18.70;90.10;;;;;;4992957;28;20037;-74
2022/10/07 13:22:48;;;;;;;8.18;4.03;;;18.80;90.30;;;;;;4993593;28;20034;-73
2022/10/07 13:25:18;;;;;;;9.02;4.60;;;18.90;90.40;;;;;;4991725;28;20318;-75
2022/10/07 13:27:56;;;;;;;10.07;3.83;;;19.00;90.60;;;;;;4987319;28;20035;-74
2022/10/07 13:30:36;;;;;;;9.38;3.63;;;18.90;86.90;;;;;;4993659;28;20368;-74
2022/10/07 13:33:29;;;;;;;6.95;3.13;;;18.80;87.80;;;;;;4992726;28;20035;-74